createdAt,value
2023-02-27T00:01:18.102Z,98652.00
2023-02-27T00:03:51.970Z,98644.00
2023-02-27T00:06:18.917Z,98655.00
2023-02-27T00:08:52.917Z,98655.00
2023-02-27T00:11:20.073Z,98659.00
2023-02-27T00:13:53.918Z,98663.00
2023-02-27T00:16:28.030Z,98663.00
2023-02-27T00:19:01.887Z,98669.00
2023-02-27T00:21:36.878Z,98673.00
2023-02-27T00:24:10.867Z,98672.00
2023-02-27T00:26:37.830Z,98675.00
2023-02-27T00:29:11.896Z,98667.00
2023-02-27T00:31:38.987Z,98668.00
2023-02-27T00:34:06.035Z,98690.00
2023-02-27T00:36:39.897Z,98684.00
2023-02-27T00:39:06.838Z,98688.00
2023-02-27T00:41:33.855Z,98686.00
2023-02-27T00:44:06.926Z,98684.00
2023-02-27T00:46:33.981Z,98682.00
2023-02-27T00:49:07.933Z,98684.00
2023-02-27T00:51:34.925Z,98690.00
2023-02-27T00:54:07.955Z,98694.00
2023-02-27T00:56:34.936Z,98696.00
2023-02-27T00:59:08.958Z,98680.00
2023-02-27T01:01:42.936Z,98679.00
2023-02-27T01:04:10.269Z,98690.00
2023-02-27T01:06:43.891Z,98713.00
2023-02-27T01:09:10.972Z,98696.00
2023-02-27T01:11:44.922Z,98711.00
2023-02-27T01:14:11.942Z,98712.00
2023-02-27T01:16:46.072Z,98703.00
2023-02-27T01:19:13.111Z,98724.00
2023-02-27T01:21:46.937Z,98721.00
2023-02-27T01:24:21.065Z,98729.00
2023-02-27T01:26:48.381Z,98706.00
2023-02-27T01:29:15.750Z,98700.00
2023-02-27T01:31:49.038Z,98737.00
2023-02-27T01:34:16.730Z,98730.00
2023-02-27T01:36:49.974Z,98721.00
2023-02-27T01:39:17.635Z,98731.00
2023-02-27T01:41:50.954Z,98729.00
2023-02-27T01:44:18.039Z,98734.00
2023-02-27T01:46:45.416Z,98743.00
2023-02-27T01:49:27.974Z,98738.00
2023-02-27T01:52:06.437Z,98749.00
2023-02-27T01:54:43.986Z,98739.00
2023-02-27T01:57:11.016Z,98743.00
2023-02-27T01:59:39.761Z,98740.00
2023-02-27T02:02:23.989Z,98745.00
2023-02-27T02:04:51.016Z,98751.00
2023-02-27T02:07:25.978Z,98734.00
2023-02-27T02:09:56.041Z,98730.00
2023-02-27T02:12:41.994Z,98735.00
2023-02-27T02:15:09.788Z,98756.00
2023-02-27T02:17:52.955Z,98760.00
2023-02-27T02:20:56.756Z,98763.00
2023-02-27T02:24:06.988Z,98766.00
2023-02-27T02:27:08.912Z,98770.00
2023-02-27T02:30:10.968Z,98782.00
2023-02-27T02:33:20.723Z,98774.00
2023-02-27T02:36:17.947Z,98787.00
2023-02-27T02:39:28.594Z,98791.00
2023-02-27T02:42:14.968Z,98791.00
2023-02-27T02:45:12.447Z,98780.00
2023-02-27T02:48:18.905Z,98785.00
2023-02-27T02:51:32.122Z,98796.00
2023-02-27T02:54:24.984Z,98804.00
2023-02-27T02:57:41.202Z,98808.00
2023-02-27T03:00:45.979Z,98804.00
2023-02-27T03:03:34.425Z,98793.00
2023-02-27T03:06:16.018Z,98803.00
2023-02-27T03:08:49.390Z,98816.00
2023-02-27T03:11:22.943Z,98802.00
2023-02-27T03:14:26.253Z,98807.00
2023-02-27T03:17:13.042Z,98784.00
2023-02-27T03:20:06.008Z,98805.00
2023-02-27T03:22:42.021Z,98803.00
2023-02-27T03:25:17.925Z,98806.00
2023-02-27T03:27:51.260Z,98803.00
2023-02-27T03:30:36.033Z,98803.00
2023-02-27T03:33:15.503Z,98795.00
2023-02-27T03:35:56.985Z,98816.00
2023-02-27T03:39:05.991Z,98805.00
2023-02-27T03:41:46.115Z,98826.00
2023-02-27T03:44:28.983Z,98830.00
2023-02-27T03:46:55.972Z,98811.00
2023-02-27T03:49:28.944Z,98821.00
2023-02-27T03:51:55.914Z,98827.00
2023-02-27T03:54:34.013Z,98830.00
2023-02-27T03:57:09.965Z,98830.00
2023-02-27T03:59:43.016Z,98834.00
2023-02-27T04:02:10.060Z,98832.00
2023-02-27T04:04:37.223Z,98849.00
2023-02-27T04:07:50.960Z,98837.00
2023-02-27T04:10:55.158Z,98840.00
2023-02-27T04:13:44.262Z,98859.00
2023-02-27T04:16:33.993Z,98854.00
2023-02-27T04:19:24.416Z,98857.00
2023-02-27T04:22:22.981Z,98861.00
2023-02-27T04:25:05.997Z,98871.00
2023-02-27T04:28:12.018Z,98876.00
2023-02-27T04:31:04.792Z,98886.00
2023-02-27T04:33:44.987Z,98883.00
2023-02-27T04:36:23.648Z,98881.00
2023-02-27T04:39:22.027Z,98897.00
2023-02-27T04:42:06.039Z,98883.00
2023-02-27T04:44:41.069Z,98884.00
2023-02-27T04:47:08.812Z,98892.00
2023-02-27T04:49:47.990Z,98893.00
2023-02-27T04:52:23.112Z,98898.00
2023-02-27T04:55:06.996Z,98892.00
2023-02-27T04:57:46.916Z,98913.00
2023-02-27T05:00:21.090Z,98904.00
2023-02-27T05:02:56.766Z,98914.00
2023-02-27T05:05:34.029Z,98897.00
2023-02-27T05:08:35.030Z,98917.00
2023-02-27T05:11:21.063Z,98902.00
2023-02-27T05:13:58.989Z,98920.00
2023-02-27T05:17:03.165Z,98916.00
2023-02-27T05:19:32.218Z,98925.00
2023-02-27T05:22:43.053Z,98934.00
2023-02-27T05:25:35.291Z,98936.00
2023-02-27T05:29:00.099Z,98933.00
2023-02-27T05:32:09.069Z,98935.00
2023-02-27T05:35:00.993Z,98929.00
2023-02-27T05:37:49.769Z,98913.00
2023-02-27T05:40:31.031Z,98921.00
2023-02-27T05:43:22.619Z,98934.00
2023-02-27T05:45:58.031Z,98923.00
2023-02-27T05:48:30.609Z,98934.00
2023-02-27T05:50:57.545Z,98937.00
2023-02-27T05:53:34.083Z,98948.00
2023-02-27T05:56:02.286Z,98948.00
2023-02-27T05:58:46.024Z,98916.00
2023-02-27T06:01:13.051Z,98949.00
2023-02-27T06:03:40.653Z,98956.00
2023-02-27T06:06:18.051Z,98940.00
2023-02-27T06:08:45.398Z,98951.00
2023-02-27T06:11:19.032Z,98959.00
2023-02-27T06:13:53.027Z,98947.00
2023-02-27T06:16:20.002Z,98953.00
2023-02-27T06:18:46.968Z,98949.00
2023-02-27T06:21:21.050Z,98965.00
2023-02-27T06:23:48.003Z,98961.00
2023-02-27T06:26:22.065Z,98974.00
2023-02-27T06:28:49.022Z,98963.00
2023-02-27T06:31:16.090Z,98975.00
2023-02-27T06:33:50.046Z,98970.00
2023-02-27T06:36:23.744Z,98972.00
2023-02-27T06:38:57.090Z,98982.00
2023-02-27T06:41:24.106Z,98989.00
2023-02-27T06:43:51.073Z,98974.00
2023-02-27T06:46:25.294Z,98980.00
2023-02-27T06:48:52.334Z,98994.00
2023-02-27T06:51:26.054Z,98982.00
2023-02-27T06:53:53.050Z,98971.00
2023-02-27T06:56:26.369Z,98993.00
2023-02-27T06:58:53.568Z,99003.00
2023-02-27T07:01:27.090Z,98991.00
2023-02-27T07:03:54.007Z,99009.00
2023-02-27T07:06:20.922Z,99009.00
2023-02-27T07:09:14.022Z,99010.00
2023-02-27T07:11:47.053Z,99010.00
2023-02-27T07:14:14.041Z,99015.00
2023-02-27T07:16:47.068Z,99017.00
2023-02-27T07:19:14.252Z,99026.00
2023-02-27T07:21:41.290Z,99029.00
2023-02-27T07:24:15.106Z,99042.00
2023-02-27T07:26:42.094Z,99028.00
2023-02-27T07:29:15.124Z,99038.00
2023-02-27T07:31:42.091Z,99047.00
2023-02-27T07:34:15.090Z,99037.00
2023-02-27T07:36:49.125Z,99064.00
2023-02-27T07:39:16.166Z,99062.00
2023-02-27T07:41:43.150Z,99054.00
2023-02-27T07:44:17.047Z,99057.00
2023-02-27T07:46:44.007Z,99070.00
2023-02-27T07:49:11.247Z,99074.00
2023-02-27T07:51:45.079Z,99061.00
2023-02-27T07:54:12.071Z,99079.00
2023-02-27T07:56:39.214Z,99083.00
2023-02-27T07:59:13.058Z,99090.00
2023-02-27T08:01:46.094Z,99072.00
2023-02-27T08:04:13.125Z,99092.00
2023-02-27T08:06:47.072Z,99095.00
2023-02-27T08:09:14.036Z,99097.00
2023-02-27T08:11:49.004Z,99093.00
2023-02-27T08:14:16.448Z,99086.00
2023-02-27T08:16:50.121Z,99089.00
2023-02-27T08:19:23.115Z,99091.00
2023-02-27T08:21:50.135Z,99082.00
2023-02-27T08:24:17.139Z,99091.00
2023-02-27T08:26:51.146Z,99086.00
2023-02-27T08:29:18.132Z,99099.00
2023-02-27T08:31:52.290Z,99099.00
2023-02-27T08:34:19.389Z,99110.00
2023-02-27T08:36:53.163Z,99107.00
2023-02-27T08:39:20.187Z,99097.00
2023-02-27T08:41:47.157Z,99106.00
2023-02-27T08:44:21.135Z,99101.00
2023-02-27T08:46:48.134Z,99107.00
2023-02-27T08:49:22.171Z,99104.00
2023-02-27T08:51:56.110Z,99113.00
2023-02-27T08:54:23.219Z,99116.00
2023-02-27T08:56:57.132Z,99112.00
2023-02-27T08:59:24.127Z,99105.00
2023-02-27T09:01:57.116Z,99111.00
2023-02-27T09:04:24.152Z,99119.00
2023-02-27T09:06:57.156Z,99106.00
2023-02-27T09:09:24.303Z,99139.00
2023-02-27T09:11:52.015Z,99120.00
2023-02-27T09:14:26.149Z,99124.00
2023-02-27T09:16:53.287Z,99138.00
2023-02-27T09:19:20.309Z,99141.00
2023-02-27T09:22:01.067Z,99133.00
2023-02-27T09:24:35.114Z,99144.00
2023-02-27T09:27:09.119Z,99144.00
2023-02-27T09:29:42.197Z,99134.00
2023-02-27T09:32:09.266Z,99135.00
2023-02-27T09:34:43.140Z,99143.00
2023-02-27T09:37:17.128Z,99138.00
2023-02-27T09:39:51.170Z,99145.00
2023-02-27T09:42:26.473Z,99132.00
2023-02-27T09:45:12.138Z,99147.00
2023-02-27T09:47:48.151Z,99153.00
2023-02-27T09:50:45.163Z,99145.00
2023-02-27T09:53:29.051Z,99147.00
2023-02-27T09:56:12.215Z,99141.00
2023-02-27T09:59:02.974Z,99136.00
2023-02-27T10:02:01.267Z,99159.00
2023-02-27T10:04:52.023Z,99160.00
2023-02-27T10:07:59.102Z,99160.00
2023-02-27T10:10:41.188Z,99167.00
2023-02-27T10:13:36.966Z,99162.00
2023-02-27T10:16:10.164Z,99158.00
2023-02-27T10:18:56.123Z,99146.00
2023-02-27T10:21:42.132Z,99163.00
2023-02-27T10:24:33.958Z,99172.00
2023-02-27T10:27:09.161Z,99170.00
2023-02-27T10:29:39.428Z,99159.00
2023-02-27T10:32:31.248Z,99179.00
2023-02-27T10:35:33.223Z,99173.00
2023-02-27T10:38:04.221Z,99176.00
2023-02-27T10:40:31.272Z,99154.00
2023-02-27T10:43:07.228Z,99183.00
2023-02-27T10:45:41.165Z,99190.00
2023-02-27T10:48:08.098Z,99184.00
2023-02-27T10:50:38.084Z,99189.00
2023-02-27T10:53:23.235Z,99187.00
2023-02-27T10:56:13.245Z,99181.00
2023-02-27T10:58:40.204Z,99172.00
2023-02-27T11:01:09.602Z,99144.00
2023-02-27T11:03:47.188Z,99159.00
2023-02-27T11:06:25.599Z,99155.00
2023-02-27T11:09:30.217Z,99167.00
2023-02-27T11:12:21.046Z,99160.00
2023-02-27T11:15:02.176Z,99159.00
2023-02-27T11:17:40.165Z,99152.00
2023-02-27T11:20:30.264Z,99149.00
2023-02-27T11:23:33.227Z,99146.00
2023-02-27T11:26:16.123Z,99125.00
2023-02-27T11:28:49.156Z,99135.00
2023-02-27T11:31:21.071Z,99130.00
2023-02-27T11:34:02.227Z,99130.00
2023-02-27T11:36:39.887Z,99125.00
2023-02-27T11:39:13.207Z,99120.00
2023-02-27T11:41:46.205Z,99127.00
2023-02-27T11:44:17.077Z,99112.00
2023-02-27T11:46:53.321Z,99101.00
2023-02-27T11:49:39.032Z,99119.00
2023-02-27T11:52:18.238Z,99118.00
2023-02-27T11:55:02.304Z,99113.00
2023-02-27T11:57:33.800Z,99102.00
2023-02-27T12:00:20.735Z,99105.00
2023-02-27T12:03:16.593Z,99103.00
2023-02-27T12:05:54.239Z,99103.00
2023-02-27T12:08:46.186Z,99098.00
2023-02-27T12:11:32.070Z,99096.00
2023-02-27T12:14:33.683Z,99097.00
2023-02-27T12:17:23.045Z,99087.00
2023-02-27T12:20:25.638Z,99095.00
2023-02-27T12:22:54.548Z,99098.00
2023-02-27T12:25:40.320Z,99091.00
2023-02-27T12:28:17.992Z,99082.00
2023-02-27T12:31:42.339Z,99099.00
2023-02-27T12:34:33.331Z,99091.00
2023-02-27T12:37:34.221Z,99085.00
2023-02-27T12:40:01.769Z,99086.00
2023-02-27T12:42:56.257Z,99090.00
2023-02-27T12:46:00.336Z,99096.00
2023-02-27T12:49:00.628Z,99087.00
2023-02-27T12:52:08.227Z,99085.00
2023-02-27T12:55:09.245Z,99071.00
2023-02-27T12:58:03.789Z,99084.00
2023-02-27T13:01:02.254Z,99081.00
2023-02-27T13:04:18.393Z,99079.00
2023-02-27T13:06:51.928Z,99065.00
2023-02-27T13:09:31.251Z,99068.00
2023-02-27T13:12:42.378Z,99063.00
2023-02-27T13:15:39.224Z,99063.00
2023-02-27T13:18:37.676Z,99077.00
2023-02-27T13:21:13.732Z,99067.00
2023-02-27T13:24:00.290Z,99076.00
2023-02-27T13:26:36.250Z,99070.00
2023-02-27T13:29:10.220Z,99070.00
2023-02-27T13:32:01.651Z,99081.00
2023-02-27T13:35:02.269Z,99064.00
2023-02-27T13:37:55.478Z,99075.00
2023-02-27T13:40:45.284Z,99088.00
2023-02-27T13:43:46.404Z,99076.00
2023-02-27T13:46:37.343Z,99089.00
2023-02-27T13:49:26.900Z,99083.00
2023-02-27T13:51:55.602Z,99074.00
2023-02-27T13:54:40.276Z,99083.00
2023-02-27T13:57:24.952Z,99085.00
2023-02-27T14:00:32.230Z,99086.00
2023-02-27T14:03:18.134Z,99074.00
2023-02-27T14:05:53.259Z,99069.00
2023-02-27T14:08:27.171Z,99072.00
2023-02-27T14:11:26.637Z,99081.00
2023-02-27T14:13:53.845Z,99090.00
2023-02-27T14:16:45.302Z,99088.00
2023-02-27T14:19:21.064Z,99090.00
2023-02-27T14:22:42.299Z,99061.00
2023-02-27T14:25:18.498Z,99099.00
2023-02-27T14:27:57.183Z,99098.00
2023-02-27T14:31:11.323Z,99089.00
2023-02-27T14:33:49.623Z,99103.00
2023-02-27T14:36:34.274Z,99112.00
2023-02-27T14:39:01.721Z,99114.00
2023-02-27T14:41:47.309Z,99113.00
2023-02-27T14:44:31.253Z,99098.00
2023-02-27T14:46:58.199Z,99102.00
2023-02-27T14:49:42.337Z,99095.00
2023-02-27T14:52:24.724Z,99112.00
2023-02-27T14:54:58.314Z,99102.00
2023-02-27T14:57:26.811Z,99110.00
2023-02-27T15:00:01.228Z,99109.00
2023-02-27T15:02:34.741Z,99115.00
2023-02-27T15:05:08.363Z,99124.00
2023-02-27T15:07:35.468Z,99128.00
2023-02-27T15:10:05.255Z,99131.00
2023-02-27T15:12:38.328Z,99130.00
2023-02-27T15:15:06.372Z,99115.00
2023-02-27T15:17:48.386Z,99137.00
2023-02-27T15:20:32.441Z,99134.00
2023-02-27T15:23:33.302Z,99130.00
2023-02-27T15:26:00.299Z,99131.00
2023-02-27T15:28:32.092Z,99131.00
2023-02-27T15:31:05.358Z,99143.00
2023-02-27T15:33:32.838Z,99133.00
2023-02-27T15:35:59.916Z,99137.00
2023-02-27T15:38:39.336Z,99131.00
2023-02-27T15:41:16.750Z,99150.00
2023-02-27T15:43:50.357Z,99120.00
2023-02-27T15:46:17.429Z,99145.00
2023-02-27T15:48:51.321Z,99143.00
2023-02-27T15:51:18.220Z,99149.00
2023-02-27T15:53:56.369Z,99161.00
2023-02-27T15:56:28.615Z,99158.00
2023-02-27T15:58:55.655Z,99135.00
2023-02-27T16:01:31.617Z,99151.00
2023-02-27T16:04:00.515Z,99161.00
2023-02-27T16:06:31.038Z,99162.00
2023-02-27T16:09:32.342Z,99143.00
2023-02-27T16:12:40.343Z,99165.00
2023-02-27T16:15:26.408Z,99165.00
2023-02-27T16:18:16.345Z,99173.00
2023-02-27T16:20:51.305Z,99168.00
2023-02-27T16:23:31.421Z,99169.00
2023-02-27T16:26:29.568Z,99172.00
2023-02-27T16:29:26.394Z,99185.00
2023-02-27T16:32:01.459Z,99157.00
2023-02-27T16:34:46.132Z,99183.00
2023-02-27T16:37:27.388Z,99182.00
2023-02-27T16:39:54.406Z,99180.00
2023-02-27T16:42:21.676Z,99190.00
2023-02-27T16:44:55.352Z,99189.00
2023-02-27T16:47:28.402Z,99182.00
2023-02-27T16:50:02.334Z,99179.00
2023-02-27T16:52:29.305Z,99194.00
2023-02-27T16:54:56.284Z,99184.00
2023-02-27T16:57:29.300Z,99191.00
2023-02-27T16:59:56.253Z,99196.00
2023-02-27T17:02:29.349Z,99204.00
2023-02-27T17:04:56.360Z,99202.00
2023-02-27T17:07:29.349Z,99219.00
2023-02-27T17:09:56.268Z,99206.00
2023-02-27T17:12:23.215Z,99219.00
2023-02-27T17:14:56.363Z,99228.00
2023-02-27T17:17:23.337Z,99223.00
2023-02-27T17:19:56.462Z,99182.00
2023-02-27T17:22:23.479Z,99211.00
2023-02-27T17:24:57.352Z,99240.00
2023-02-27T17:27:24.316Z,99233.00
2023-02-27T17:29:58.315Z,99240.00
2023-02-27T17:32:25.365Z,99246.00
2023-02-27T17:35:02.389Z,99243.00
2023-02-27T17:37:29.344Z,99247.00
2023-02-27T17:39:56.366Z,99242.00
2023-02-27T17:42:30.434Z,99255.00
2023-02-27T17:45:04.406Z,99260.00
2023-02-27T17:47:31.580Z,99250.00
2023-02-27T17:50:05.414Z,99233.00
2023-02-27T17:52:39.388Z,99240.00
2023-02-27T17:55:07.050Z,99245.00
2023-02-27T17:57:38.076Z,99255.00
2023-02-27T18:00:18.380Z,99262.00
2023-02-27T18:02:45.624Z,99276.00
2023-02-27T18:05:12.609Z,99246.00
2023-02-27T18:07:46.437Z,99267.00
2023-02-27T18:10:20.423Z,99252.00
2023-02-27T18:12:47.386Z,99235.00
2023-02-27T18:15:14.466Z,99262.00
2023-02-27T18:17:49.448Z,99284.00
2023-02-27T18:20:16.614Z,99269.00
2023-02-27T18:22:50.392Z,99227.00
2023-02-27T18:25:17.442Z,99254.00
2023-02-27T18:27:51.443Z,99281.00
2023-02-27T18:30:18.551Z,99252.00
2023-02-27T18:32:45.610Z,99291.00
2023-02-27T18:35:19.409Z,99252.00
2023-02-27T18:37:46.452Z,99283.00
2023-02-27T18:40:20.427Z,99289.00
2023-02-27T18:42:47.456Z,99264.00
2023-02-27T18:45:14.573Z,99307.00
2023-02-27T18:47:48.455Z,99281.00
2023-02-27T18:50:15.678Z,99262.00
2023-02-27T18:52:43.215Z,99254.00
2023-02-27T18:55:16.451Z,99305.00
2023-02-27T18:57:43.629Z,99295.00
2023-02-27T19:00:18.425Z,99286.00
2023-02-27T19:02:45.971Z,99273.00
2023-02-27T19:05:13.141Z,99285.00
2023-02-27T19:07:46.428Z,99284.00
2023-02-27T19:10:13.646Z,99298.00
2023-02-27T19:12:41.550Z,99277.00
2023-02-27T19:15:16.445Z,99299.00
2023-02-27T19:17:43.503Z,99293.00
2023-02-27T19:20:11.450Z,99280.00
2023-02-27T19:22:44.428Z,99313.00
2023-02-27T19:25:18.433Z,99298.00
2023-02-27T19:27:45.509Z,99310.00
2023-02-27T19:30:20.452Z,99319.00
2023-02-27T19:32:47.521Z,99325.00
2023-02-27T19:35:21.569Z,99309.00
2023-02-27T19:37:48.739Z,99326.00
2023-02-27T19:40:22.470Z,99279.00
2023-02-27T19:42:49.559Z,99321.00
2023-02-27T19:45:23.455Z,99326.00
2023-02-27T19:47:50.445Z,99335.00
2023-02-27T19:50:17.884Z,99320.00
2023-02-27T19:52:51.483Z,99333.00
2023-02-27T19:55:19.696Z,99341.00
2023-02-27T19:57:46.772Z,99337.00
2023-02-27T20:00:21.493Z,99314.00
2023-02-27T20:02:48.480Z,99344.00
2023-02-27T20:05:15.506Z,99342.00
2023-02-27T20:07:49.486Z,99323.00
2023-02-27T20:10:16.622Z,99343.00
2023-02-27T20:12:50.417Z,99349.00
2023-02-27T20:15:17.444Z,99337.00
2023-02-27T20:17:44.575Z,99329.00
2023-02-27T20:20:18.504Z,99318.00
2023-02-27T20:22:45.511Z,99353.00
2023-02-27T20:25:12.651Z,99355.00
2023-02-27T20:27:46.473Z,99354.00
2023-02-27T20:30:13.497Z,99361.00
2023-02-27T20:32:47.484Z,99362.00
2023-02-27T20:35:14.540Z,99365.00
2023-02-27T20:37:41.562Z,99364.00
2023-02-27T20:40:16.427Z,99367.00
2023-02-27T20:42:49.469Z,99363.00
2023-02-27T20:45:23.488Z,99370.00
2023-02-27T20:47:50.639Z,99367.00
2023-02-27T20:50:18.267Z,99370.00
2023-02-27T20:52:51.465Z,99378.00
2023-02-27T20:55:25.347Z,99374.00
2023-02-27T20:57:58.494Z,99361.00
2023-02-27T21:00:25.494Z,99367.00
2023-02-27T21:02:53.387Z,99354.00
2023-02-27T21:05:27.548Z,99340.00
2023-02-27T21:07:54.778Z,99378.00
2023-02-27T21:10:21.884Z,99375.00
2023-02-27T21:12:55.527Z,99388.00
2023-02-27T21:15:29.532Z,99387.00
2023-02-27T21:17:56.600Z,99381.00
2023-02-27T21:20:23.731Z,99388.00
2023-02-27T21:22:57.539Z,99374.00
2023-02-27T21:25:24.740Z,99393.00
2023-02-27T21:27:58.470Z,99381.00
2023-02-27T21:30:25.550Z,99395.00
2023-02-27T21:32:59.559Z,99399.00
2023-02-27T21:35:26.822Z,99398.00
2023-02-27T21:38:00.518Z,99398.00
2023-02-27T21:40:27.606Z,99394.00
2023-02-27T21:43:01.606Z,99405.00
2023-02-27T21:45:28.805Z,99407.00
2023-02-27T21:47:55.863Z,99402.00
2023-02-27T21:50:29.761Z,99384.00
2023-02-27T21:52:56.801Z,99415.00
2023-02-27T21:55:24.024Z,99403.00
2023-02-27T21:57:57.562Z,99412.00
2023-02-27T22:00:24.937Z,99414.00
2023-02-27T22:02:58.605Z,99410.00
2023-02-27T22:05:25.672Z,99401.00
2023-02-27T22:07:52.789Z,99418.00
2023-02-27T22:10:26.489Z,99418.00
2023-02-27T22:12:53.464Z,99430.00
2023-02-27T22:15:27.527Z,99419.00
2023-02-27T22:17:54.665Z,99431.00
2023-02-27T22:20:28.553Z,99435.00
2023-02-27T22:22:55.699Z,99432.00
2023-02-27T22:25:29.568Z,99418.00
2023-02-27T22:27:56.648Z,99429.00
2023-02-27T22:30:23.618Z,99434.00
2023-02-27T22:32:57.471Z,99439.00
2023-02-27T22:35:24.660Z,99456.00
2023-02-27T22:37:58.583Z,99447.00
2023-02-27T22:40:25.714Z,99432.00
2023-02-27T22:42:52.811Z,99425.00
2023-02-27T22:45:26.538Z,99459.00
2023-02-27T22:47:53.486Z,99468.00
2023-02-27T22:50:27.550Z,99443.00
2023-02-27T22:52:54.569Z,99442.00
2023-02-27T22:55:21.535Z,99460.00
2023-02-27T22:57:55.527Z,99450.00
2023-02-27T23:00:22.670Z,99459.00
2023-02-27T23:02:49.662Z,99463.00
2023-02-27T23:05:23.521Z,99468.00
2023-02-27T23:07:56.544Z,99464.00
2023-02-27T23:10:23.483Z,99447.00
2023-02-27T23:13:00.613Z,99445.00
2023-02-27T23:15:27.607Z,99468.00
2023-02-27T23:18:01.549Z,99449.00
2023-02-27T23:20:28.688Z,99458.00
2023-02-27T23:23:02.567Z,99438.00
2023-02-27T23:25:29.609Z,99437.00
2023-02-27T23:28:03.490Z,99464.00
2023-02-27T23:30:37.652Z,99426.00
2023-02-27T23:33:04.674Z,99441.00
2023-02-27T23:35:31.733Z,99459.00
2023-02-27T23:38:05.599Z,99450.00
2023-02-27T23:40:32.614Z,99443.00
2023-02-27T23:42:59.547Z,99474.00
2023-02-27T23:45:33.572Z,99488.00
2023-02-27T23:48:01.679Z,99472.00
2023-02-27T23:50:40.650Z,99477.00
2023-02-27T23:53:07.712Z,99467.00
2023-02-27T23:55:36.007Z,99488.00
2023-02-27T23:58:11.511Z,99485.00
